createdAt,value
2022-11-24T00:01:10.758Z,100434.25
2022-11-24T00:03:37.644Z,100439.28
2022-11-24T00:06:10.859Z,100436.63
2022-11-24T00:08:39.037Z,100429.69
2022-11-24T00:11:13.272Z,100422.56
2022-11-24T00:13:40.185Z,100432.84
2022-11-24T00:16:17.389Z,100449.56
2022-11-24T00:18:46.090Z,100465.13
2022-11-24T00:21:13.993Z,100458.00
2022-11-24T00:23:40.802Z,100463.28
2022-11-24T00:26:11.922Z,100464.59
2022-11-24T00:28:39.544Z,100460.88
2022-11-24T00:31:23.514Z,100460.59
2022-11-24T00:33:52.185Z,100467.25
2022-11-24T00:36:20.135Z,100461.16
2022-11-24T00:38:47.159Z,100469.38
2022-11-24T00:41:14.443Z,100462.47
2022-11-24T00:43:41.004Z,100467.50
2022-11-24T00:46:07.669Z,100463.00
2022-11-24T00:48:34.661Z,100469.38
2022-11-24T00:51:05.488Z,100465.94
2022-11-24T00:53:32.211Z,100467.00
2022-11-24T00:55:58.916Z,100473.63
2022-11-24T00:58:25.701Z,100477.06
2022-11-24T01:00:52.934Z,100484.22
2022-11-24T01:03:20.827Z,100487.13
2022-11-24T01:05:47.904Z,100493.50
2022-11-24T01:08:15.083Z,100496.41
2022-11-24T01:10:41.638Z,100494.84
2022-11-24T01:13:08.201Z,100492.69
2022-11-24T01:15:36.571Z,100492.47
2022-11-24T01:18:04.143Z,100492.72
2022-11-24T01:20:31.317Z,100501.75
2022-11-24T01:22:57.839Z,100504.66
2022-11-24T01:25:24.358Z,100511.28
2022-11-24T01:27:50.924Z,100502.28
2022-11-24T01:30:17.671Z,100506.78
2022-11-24T01:32:44.214Z,100502.03
2022-11-24T01:35:10.962Z,100506.53
2022-11-24T01:37:37.444Z,100510.00
2022-11-24T01:40:04.561Z,100503.13
2022-11-24T01:42:46.815Z,100512.66
2022-11-24T01:45:28.509Z,100510.00
2022-11-24T01:47:55.886Z,100510.53
2022-11-24T01:50:23.076Z,100520.31
2022-11-24T01:52:54.124Z,100512.66
2022-11-24T01:55:25.691Z,100523.25
2022-11-24T01:57:59.705Z,100522.44
2022-11-24T02:00:26.234Z,100525.38
2022-11-24T02:02:53.246Z,100527.75
2022-11-24T02:05:37.773Z,100542.28
2022-11-24T02:08:10.917Z,100529.56
2022-11-24T02:10:49.099Z,100529.03
2022-11-24T02:13:16.107Z,100525.84
2022-11-24T02:15:42.845Z,100535.38
2022-11-24T02:18:09.714Z,100527.69
2022-11-24T02:20:36.617Z,100540.34
2022-11-24T02:23:31.554Z,100536.38
2022-11-24T02:25:57.980Z,100535.53
2022-11-24T02:28:29.376Z,100540.31
2022-11-24T02:30:56.788Z,100539.22
2022-11-24T02:33:25.254Z,100542.13
2022-11-24T02:35:52.624Z,100550.06
2022-11-24T02:38:19.221Z,100553.22
2022-11-24T02:40:49.296Z,100551.09
2022-11-24T02:43:20.672Z,100548.97
2022-11-24T02:45:47.925Z,100556.09
2022-11-24T02:48:15.845Z,100555.56
2022-11-24T02:50:42.431Z,100555.56
2022-11-24T02:53:09.108Z,100559.00
2022-11-24T02:55:35.637Z,100557.94
2022-11-24T02:58:02.224Z,100557.13
2022-11-24T03:00:28.698Z,100558.72
2022-11-24T03:02:55.337Z,100560.28
2022-11-24T03:05:21.976Z,100556.59
2022-11-24T03:07:48.588Z,100558.97
2022-11-24T03:10:16.292Z,100560.03
2022-11-24T03:12:43.229Z,100548.09
2022-11-24T03:15:10.226Z,100545.44
2022-11-24T03:17:36.947Z,100557.63
2022-11-24T03:20:05.206Z,100552.84
2022-11-24T03:22:32.329Z,100563.16
2022-11-24T03:24:59.257Z,100559.44
2022-11-24T03:27:26.284Z,100560.22
2022-11-24T03:29:52.830Z,100557.31
2022-11-24T03:32:19.424Z,100566.03
2022-11-24T03:34:45.971Z,100561.28
2022-11-24T03:37:12.481Z,100561.00
2022-11-24T03:39:39.292Z,100563.91
2022-11-24T03:42:05.966Z,100571.59
2022-11-24T03:44:32.967Z,100571.88
2022-11-24T03:46:59.853Z,100580.59
2022-11-24T03:49:26.388Z,100568.16
2022-11-24T03:51:53.075Z,100563.66
2022-11-24T03:54:19.821Z,100574.25
2022-11-24T03:56:46.502Z,100577.69
2022-11-24T03:59:13.216Z,100581.91
2022-11-24T04:01:39.835Z,100576.88
2022-11-24T04:04:06.407Z,100583.25
2022-11-24T04:06:32.989Z,100592.78
2022-11-24T04:09:00.494Z,100592.00
2022-11-24T04:11:45.571Z,100586.41
2022-11-24T04:14:13.755Z,100593.28
2022-11-24T04:16:40.770Z,100606.53
2022-11-24T04:19:07.529Z,100600.47
2022-11-24T04:21:34.022Z,100607.31
2022-11-24T04:24:00.781Z,100605.47
2022-11-24T04:26:27.658Z,100615.25
2022-11-24T04:28:54.275Z,100612.34
2022-11-24T04:31:20.987Z,100627.47
2022-11-24T04:33:47.594Z,100625.84
2022-11-24T04:36:14.092Z,100617.91
2022-11-24T04:39:24.086Z,100637.53
2022-11-24T04:41:27.039Z,100632.50
2022-11-24T04:43:53.661Z,100637.00
2022-11-24T04:46:20.393Z,100639.66
2022-11-24T04:48:46.964Z,100650.25
2022-11-24T04:51:14.412Z,100649.19
2022-11-24T04:53:41.251Z,100649.19
2022-11-24T04:56:08.387Z,100659.75
2022-11-24T04:58:35.291Z,100666.66
2022-11-24T05:01:01.997Z,100659.75
2022-11-24T05:03:28.540Z,100672.75
2022-11-24T05:05:58.977Z,100673.53
2022-11-24T05:08:25.564Z,100685.97
2022-11-24T05:10:52.126Z,100691.53
2022-11-24T05:13:18.742Z,100688.91
2022-11-24T05:15:45.262Z,100688.09
2022-11-24T05:18:15.358Z,100697.09
2022-11-24T05:20:44.547Z,100708.00
2022-11-24T05:23:11.303Z,100711.41
2022-11-24T05:25:37.771Z,100711.69
2022-11-24T05:28:06.389Z,100718.06
2022-11-24T05:30:33.007Z,100717.81
2022-11-24T05:32:59.763Z,100720.72
2022-11-24T05:35:26.304Z,100727.88
2022-11-24T05:37:52.812Z,100731.31
2022-11-24T05:40:19.408Z,100732.38
2022-11-24T05:42:48.060Z,100735.56
2022-11-24T05:45:18.830Z,100741.13
2022-11-24T05:47:46.469Z,100745.91
2022-11-24T05:50:15.291Z,100750.69
2022-11-24T05:52:43.768Z,100760.44
2022-11-24T05:55:11.869Z,100759.16
2022-11-24T05:57:38.425Z,100765.00
2022-11-24T06:00:07.190Z,100776.63
2022-11-24T06:02:33.865Z,100783.00
2022-11-24T06:05:00.522Z,100786.94
2022-11-24T06:07:27.155Z,100781.94
2022-11-24T06:09:53.771Z,100798.06
2022-11-24T06:12:20.523Z,100802.31
2022-11-24T06:14:47.094Z,100807.59
2022-11-24T06:17:13.651Z,100814.75
2022-11-24T06:19:42.207Z,100822.69
2022-11-24T06:22:08.947Z,100825.34
2022-11-24T06:24:35.854Z,100825.34
2022-11-24T06:27:02.533Z,100831.41
2022-11-24T06:29:29.011Z,100839.34
2022-11-24T06:31:55.439Z,100837.00
2022-11-24T06:34:22.064Z,100840.94
2022-11-24T06:36:48.554Z,100852.59
2022-11-24T06:39:15.274Z,100860.81
2022-11-24T06:41:41.753Z,100857.91
2022-11-24T06:44:08.322Z,100869.53
2022-11-24T06:46:34.866Z,100866.09
2022-11-24T06:49:02.356Z,100878.28
2022-11-24T06:51:29.177Z,100881.72
2022-11-24T06:53:56.017Z,100881.72
2022-11-24T06:56:22.768Z,100887.00
2022-11-24T06:58:51.550Z,100895.47
2022-11-24T07:01:21.477Z,100894.94
2022-11-24T07:03:49.015Z,100901.31
2022-11-24T07:06:16.748Z,100911.59
2022-11-24T07:08:44.096Z,100910.81
2022-11-24T07:11:18.734Z,100916.91
2022-11-24T07:13:46.358Z,100916.38
2022-11-24T07:16:18.968Z,100923.78
2022-11-24T07:18:47.148Z,100935.19
2022-11-24T07:21:14.443Z,100931.72
2022-11-24T07:23:41.031Z,100939.94
2022-11-24T07:26:09.268Z,100946.28
2022-11-24T07:28:36.959Z,100946.28
2022-11-24T07:31:12.526Z,100950.53
2022-11-24T07:33:39.791Z,100943.38
2022-11-24T07:36:08.066Z,100948.41
2022-11-24T07:38:35.625Z,100953.69
2022-11-24T07:41:04.087Z,100958.97
2022-11-24T07:43:35.435Z,100970.91
2022-11-24T07:46:02.611Z,100975.69
2022-11-24T07:48:29.382Z,100982.59
2022-11-24T07:50:59.310Z,100994.50
2022-11-24T07:53:26.237Z,100991.34
2022-11-24T07:55:56.638Z,100997.16
2022-11-24T07:58:23.290Z,100999.53
2022-11-24T08:00:50.104Z,101008.03
2022-11-24T08:03:16.720Z,101021.78
2022-11-24T08:06:07.698Z,101024.97
2022-11-24T08:08:33.404Z,101026.56
2022-11-24T08:11:08.077Z,101030.53
2022-11-24T08:13:35.980Z,101043.28
2022-11-24T08:16:14.963Z,101036.38
2022-11-24T08:18:42.624Z,101034.78
2022-11-24T08:21:12.959Z,101039.81
2022-11-24T08:23:39.830Z,101038.75
2022-11-24T08:26:09.363Z,101034.22
2022-11-24T08:28:36.765Z,101044.28
2022-11-24T08:31:06.015Z,101041.63
2022-11-24T08:33:32.851Z,101047.72
2022-11-24T08:36:05.018Z,101040.81
2022-11-24T08:38:31.684Z,101056.97
2022-11-24T08:41:07.068Z,101059.38
2022-11-24T08:43:33.852Z,101059.91
2022-11-24T08:46:03.678Z,101067.56
2022-11-24T08:48:30.795Z,101059.88
2022-11-24T08:51:08.082Z,101055.34
2022-11-24T08:53:34.691Z,101065.69
2022-11-24T08:56:01.340Z,101077.63
2022-11-24T08:58:31.772Z,101079.72
2022-11-24T09:01:13.945Z,101082.13
2022-11-24T09:03:49.700Z,101077.59
2022-11-24T09:06:25.077Z,101085.03
2022-11-24T09:08:53.359Z,101095.38
2022-11-24T09:11:20.352Z,101087.69
2022-11-24T09:13:47.299Z,101099.38
2022-11-24T09:16:15.611Z,101105.72
2022-11-24T09:18:42.648Z,101098.56
2022-11-24T09:21:17.622Z,101105.44
2022-11-24T09:23:45.809Z,101112.09
2022-11-24T09:26:18.140Z,101108.91
2022-11-24T09:28:46.025Z,101113.66
2022-11-24T09:31:14.685Z,101118.44
2022-11-24T09:33:41.726Z,101113.94
2022-11-24T09:36:09.090Z,101117.63
2022-11-24T09:38:35.919Z,101129.81
2022-11-24T09:41:31.270Z,101131.94
2022-11-24T09:44:22.326Z,101137.22
2022-11-24T09:47:02.435Z,101142.28
2022-11-24T09:49:36.050Z,101138.81
2022-11-24T09:52:09.874Z,101154.47
2022-11-24T09:54:51.399Z,101157.09
2022-11-24T09:57:21.612Z,101161.09
2022-11-24T09:59:48.394Z,101158.97
2022-11-24T10:02:15.030Z,101158.13
2022-11-24T10:04:46.809Z,101161.28
2022-11-24T10:07:42.582Z,101173.50
2022-11-24T10:10:26.035Z,101167.91
2022-11-24T10:13:23.108Z,101166.03
2022-11-24T10:16:11.189Z,101173.69
2022-11-24T10:18:42.937Z,101182.44
2022-11-24T10:21:15.358Z,101175.78
2022-11-24T10:23:49.963Z,101181.34
2022-11-24T10:26:26.795Z,101197.50
2022-11-24T10:28:55.644Z,101195.38
2022-11-24T10:31:24.066Z,101195.16
2022-11-24T10:33:51.367Z,101200.44
2022-11-24T10:36:37.862Z,101210.53
2022-11-24T10:39:18.733Z,101209.97
2022-11-24T10:42:03.223Z,101216.59
2022-11-24T10:44:30.613Z,101219.50
2022-11-24T10:46:58.079Z,101207.78
2022-11-24T10:49:33.291Z,101219.75
2022-11-24T10:52:15.357Z,101225.31
2022-11-24T10:55:03.388Z,101224.22
2022-11-24T10:57:33.875Z,101222.94
2022-11-24T11:00:02.140Z,101226.88
2022-11-24T11:02:39.569Z,101229.84
2022-11-24T11:05:35.327Z,101227.91
2022-11-24T11:08:15.126Z,101232.66
2022-11-24T11:10:43.868Z,101230.25
2022-11-24T11:13:31.505Z,101231.28
2022-11-24T11:15:59.548Z,101231.81
2022-11-24T11:18:32.549Z,101232.53
2022-11-24T11:21:04.388Z,101234.41
2022-11-24T11:23:35.443Z,101231.75
2022-11-24T11:26:23.041Z,101233.56
2022-11-24T11:35:03.788Z,101236.47
2022-11-24T11:37:33.534Z,101235.66
2022-11-24T11:40:01.255Z,101230.31
2022-11-24T11:43:01.518Z,101221.78
2022-11-24T11:45:36.564Z,101231.03
2022-11-24T11:48:03.581Z,101225.97
2022-11-24T11:51:14.816Z,101234.22
2022-11-24T11:53:46.220Z,101229.66
2022-11-24T11:56:29.001Z,101231.53
2022-11-24T11:59:25.364Z,101240.81
2022-11-24T12:02:21.041Z,101239.19
2022-11-24T12:05:01.328Z,101224.78
2022-11-24T12:07:50.377Z,101237.78
2022-11-24T12:10:53.178Z,101240.94
2022-11-24T12:13:32.215Z,101233.53
2022-11-24T12:16:11.739Z,101238.06
2022-11-24T12:18:58.215Z,101234.28
2022-11-24T12:21:43.985Z,101229.41
2022-11-24T12:24:28.377Z,101234.75
2022-11-24T12:27:20.917Z,101236.03
2022-11-24T12:30:16.796Z,101230.44
2022-11-24T12:32:43.368Z,101236.84
2022-11-24T12:35:28.911Z,101237.06
2022-11-24T12:38:04.232Z,101236.53
2022-11-24T12:41:18.240Z,101237.81
2022-11-24T12:43:52.354Z,101243.66
2022-11-24T12:46:46.257Z,101239.09
2022-11-24T12:49:12.788Z,101258.25
2022-11-24T12:51:43.767Z,101254.78
2022-11-24T12:54:14.131Z,101256.63
2022-11-24T12:56:45.603Z,101265.47
2022-11-24T12:59:20.962Z,101260.38
2022-11-24T13:02:04.659Z,101262.53
2022-11-24T13:04:40.523Z,101263.56
2022-11-24T13:07:27.512Z,101250.78
2022-11-24T13:13:13.336Z,101249.94
2022-11-24T13:16:20.612Z,101255.00
2022-11-24T13:19:09.171Z,101261.41
2022-11-24T13:21:42.998Z,101248.38
2022-11-24T13:24:19.733Z,101256.09
2022-11-24T13:26:53.061Z,101252.34
2022-11-24T13:29:29.089Z,101248.09
2022-11-24T13:31:56.013Z,101249.66
2022-11-24T13:34:46.042Z,101244.34
2022-11-24T13:37:31.459Z,101247.59
2022-11-24T13:40:14.362Z,101248.38
2022-11-24T13:42:59.227Z,101253.19
2022-11-24T13:45:45.270Z,101254.47
2022-11-24T13:48:21.150Z,101252.34
2022-11-24T13:50:51.455Z,101252.34
2022-11-24T13:53:35.203Z,101247.00
2022-11-24T13:56:14.002Z,101254.72
2022-11-24T13:58:42.165Z,101256.38
2022-11-24T14:01:22.019Z,101252.06
2022-11-24T14:06:52.390Z,101244.84
2022-11-24T14:09:27.677Z,101247.00
2022-11-24T14:12:06.676Z,101247.28
2022-11-24T14:14:33.797Z,101247.78
2022-11-24T14:17:07.407Z,101261.94
2022-11-24T14:19:34.388Z,101251.81
2022-11-24T14:22:01.056Z,101246.81
2022-11-24T14:24:39.840Z,101252.34
2022-11-24T14:27:14.845Z,101249.66
2022-11-24T14:29:54.765Z,101238.22
2022-11-24T14:32:22.204Z,101233.69
2022-11-24T14:34:52.306Z,101232.91
2022-11-24T14:37:20.251Z,101239.03
2022-11-24T14:39:49.667Z,101231.88
2022-11-24T14:42:27.602Z,101244.13
2022-11-24T14:44:54.354Z,101244.69
2022-11-24T14:47:32.285Z,101251.09
2022-11-24T14:50:15.500Z,101242.28
2022-11-24T14:52:47.107Z,101240.72
2022-11-24T14:55:26.270Z,101241.56
2022-11-24T14:57:53.149Z,101240.25
2022-11-24T15:00:28.581Z,101246.94
2022-11-24T15:03:13.614Z,101244.28
2022-11-24T15:05:51.449Z,101241.09
2022-11-24T15:08:18.521Z,101242.72
2022-11-24T15:10:45.528Z,101249.41
2022-11-24T15:13:24.214Z,101258.44
2022-11-24T15:16:00.584Z,101252.09
2022-11-24T15:18:38.951Z,101252.66
2022-11-24T15:21:05.998Z,101253.75
2022-11-24T15:23:35.591Z,101253.78
2022-11-24T15:26:02.139Z,101256.72
2022-11-24T15:28:31.081Z,101262.63
2022-11-24T15:31:04.093Z,101269.81
2022-11-24T15:33:31.384Z,101265.03
2022-11-24T15:35:58.284Z,101264.50
2022-11-24T15:38:24.804Z,101269.06
2022-11-24T15:40:54.807Z,101275.72
2022-11-24T15:43:33.602Z,101271.72
2022-11-24T15:46:01.701Z,101273.09
2022-11-24T15:48:28.892Z,101268.34
2022-11-24T15:50:57.143Z,101266.22
2022-11-24T15:53:45.350Z,101256.41
2022-11-24T15:56:18.079Z,101260.16
2022-11-24T15:58:44.904Z,101260.19
2022-11-24T16:01:11.454Z,101267.91
2022-11-24T16:03:47.145Z,101261.28
2022-11-24T16:06:23.358Z,101267.44
2022-11-24T16:08:51.238Z,101262.38
2022-11-24T16:11:17.815Z,101265.59
2022-11-24T16:13:51.545Z,101273.06
2022-11-24T16:16:19.379Z,101262.16
2022-11-24T16:18:46.071Z,101260.88
2022-11-24T16:21:12.711Z,101258.75
2022-11-24T16:23:40.438Z,101259.31
2022-11-24T16:26:07.249Z,101252.38
2022-11-24T16:28:34.256Z,101254.00
2022-11-24T16:31:01.235Z,101264.94
2022-11-24T16:33:29.954Z,101265.97
2022-11-24T16:35:56.539Z,101270.78
2022-11-24T16:38:23.330Z,101266.81
2022-11-24T16:40:58.551Z,101272.38
2022-11-24T16:43:25.081Z,101273.47
2022-11-24T16:46:04.516Z,101277.94
2022-11-24T16:48:36.242Z,101274.50
2022-11-24T16:51:07.216Z,101272.41
2022-11-24T16:53:34.028Z,101267.34
2022-11-24T16:56:00.547Z,101262.03
2022-11-24T16:58:27.082Z,101263.91
2022-11-24T17:00:53.853Z,101267.88
2022-11-24T17:03:20.559Z,101264.69
2022-11-24T17:06:08.520Z,101266.56
2022-11-24T17:08:38.460Z,101269.50
2022-11-24T17:11:10.117Z,101266.34
2022-11-24T17:13:36.879Z,101266.06
2022-11-24T17:16:07.895Z,101268.22
2022-11-24T17:18:34.891Z,101259.16
2022-11-24T17:21:07.654Z,101255.19
2022-11-24T17:23:35.933Z,101264.25
2022-11-24T17:26:04.607Z,101266.63
2022-11-24T17:28:31.105Z,101263.44
2022-11-24T17:30:57.650Z,101261.31
2022-11-24T17:33:24.171Z,101272.22
2022-11-24T17:35:50.706Z,101268.50
2022-11-24T17:38:17.194Z,101276.47
2022-11-24T17:40:47.887Z,101272.78
2022-11-24T17:43:14.360Z,101265.31
2022-11-24T17:45:40.969Z,101263.44
2022-11-24T17:48:07.573Z,101274.88
2022-11-24T17:50:34.091Z,101269.03
2022-11-24T17:53:01.078Z,101271.44
2022-11-24T17:55:27.563Z,101278.34
2022-11-24T17:57:56.219Z,101276.75
2022-11-24T18:00:22.941Z,101270.38
2022-11-24T18:02:50.023Z,101268.00
2022-11-24T18:05:16.817Z,101265.88
2022-11-24T18:07:43.476Z,101266.16
2022-11-24T18:10:10.726Z,101269.63
2022-11-24T18:13:06.290Z,101275.97
2022-11-24T18:15:35.629Z,101276.78
2022-11-24T18:18:03.112Z,101264.03
2022-11-24T18:20:29.602Z,101274.13
2022-11-24T18:23:05.492Z,101273.63
2022-11-24T18:25:33.232Z,101278.63
2022-11-24T18:27:59.846Z,101279.44
2022-11-24T18:30:26.347Z,101264.31
2022-11-24T18:32:52.919Z,101260.88
2022-11-24T18:35:19.556Z,101266.44
2022-11-24T18:37:46.153Z,101264.56
2022-11-24T18:40:12.854Z,101258.47
2022-11-24T18:42:39.455Z,101257.38
2022-11-24T18:45:06.559Z,101263.50
2022-11-24T18:47:33.725Z,101257.41
2022-11-24T18:50:00.495Z,101258.19
2022-11-24T18:52:27.622Z,101259.00
2022-11-24T18:54:54.211Z,101256.63
2022-11-24T18:57:20.795Z,101260.59
2022-11-24T18:59:47.271Z,101257.41
2022-11-24T19:02:13.828Z,101267.25
2022-11-24T19:04:40.372Z,101258.22
2022-11-24T19:07:06.837Z,101256.38
2022-11-24T19:09:33.422Z,101252.13
2022-11-24T19:12:00.117Z,101247.09
2022-11-24T19:14:26.639Z,101246.28
2022-11-24T19:16:53.163Z,101244.97
2022-11-24T19:19:19.718Z,101248.69
2022-11-24T19:21:46.454Z,101248.16
2022-11-24T19:24:15.826Z,101242.31
2022-11-24T19:26:42.526Z,101244.19
2022-11-24T19:29:09.627Z,101233.00
2022-11-24T19:31:38.436Z,101232.50
2022-11-24T19:34:05.980Z,101231.97
2022-11-24T19:36:32.656Z,101239.94
2022-11-24T19:38:59.600Z,101232.50
2022-11-24T19:41:28.895Z,101232.50
2022-11-24T19:43:56.712Z,101232.53
2022-11-24T19:46:27.204Z,101229.06
2022-11-24T19:48:56.370Z,101232.00
2022-11-24T19:51:25.617Z,101234.38
2022-11-24T19:53:53.074Z,101231.19
2022-11-24T19:56:25.181Z,101237.56
2022-11-24T19:58:53.168Z,101235.72
2022-11-24T20:01:34.459Z,101244.75
2022-11-24T20:04:04.182Z,101236.25
2022-11-24T20:06:34.602Z,101247.13
2022-11-24T20:09:01.700Z,101253.50
2022-11-24T20:11:28.976Z,101249.78
2022-11-24T20:13:56.221Z,101247.94
2022-11-24T20:16:29.584Z,101242.13
2022-11-24T20:19:00.168Z,101237.06
2022-11-24T20:21:29.035Z,101239.97
2022-11-24T20:24:02.375Z,101237.06
2022-11-24T20:26:31.916Z,101238.66
2022-11-24T20:28:59.763Z,101242.13
2022-11-24T20:31:29.517Z,101237.84
2022-11-24T20:33:56.927Z,101233.06
2022-11-24T20:36:26.490Z,101229.63
2022-11-24T20:38:53.762Z,101235.72
2022-11-24T20:41:25.809Z,101232.81
2022-11-24T20:43:53.762Z,101229.38
2022-11-24T20:46:29.428Z,101234.38
2022-11-24T20:48:57.132Z,101239.69
2022-11-24T20:51:27.810Z,101228.28
2022-11-24T20:53:58.542Z,101229.09
2022-11-24T20:56:31.300Z,101227.78
2022-11-24T20:58:58.890Z,101229.34
2022-11-24T21:01:31.713Z,101231.47
2022-11-24T21:03:59.631Z,101230.44
2022-11-24T21:06:27.932Z,101229.91
2022-11-24T21:09:00.454Z,101224.84
2022-11-24T21:11:30.191Z,101228.56
2022-11-24T21:13:57.116Z,101228.56
2022-11-24T21:16:29.069Z,101229.91
2022-11-24T21:18:59.666Z,101237.63
2022-11-24T21:21:33.349Z,101223.00
2022-11-24T21:24:07.124Z,101228.88
2022-11-24T21:26:37.305Z,101225.16
2022-11-24T21:29:04.943Z,101217.72
2022-11-24T21:31:34.813Z,101217.97
2022-11-24T21:34:01.350Z,101218.78
2022-11-24T21:36:27.943Z,101221.16
2022-11-24T21:38:56.507Z,101219.31
2022-11-24T21:41:24.748Z,101215.84
2022-11-24T21:43:53.127Z,101216.38
2022-11-24T21:46:19.737Z,101221.94
2022-11-24T21:48:46.588Z,101212.13
2022-11-24T21:51:16.065Z,101214.25
2022-11-24T21:53:43.411Z,101213.19
2022-11-24T21:56:13.344Z,101198.59
2022-11-24T21:58:50.007Z,101204.44
2022-11-24T22:01:19.007Z,101202.06
2022-11-24T22:03:46.103Z,101210.25
2022-11-24T22:06:13.081Z,101194.09
2022-11-24T22:08:39.538Z,101197.28
2022-11-24T22:11:09.895Z,101197.50
2022-11-24T22:13:36.491Z,101194.06
2022-11-24T22:16:06.715Z,101186.09
2022-11-24T22:18:35.106Z,101184.25
2022-11-24T22:21:04.827Z,101181.59
2022-11-24T22:23:32.617Z,101177.34
2022-11-24T22:26:11.157Z,101187.94
2022-11-24T22:28:38.462Z,101185.28
2022-11-24T22:31:07.139Z,101191.91
2022-11-24T22:33:34.247Z,101184.22
2022-11-24T22:36:01.334Z,101191.63
2022-11-24T22:38:28.945Z,101184.50
2022-11-24T22:41:00.102Z,101182.91
2022-11-24T22:43:26.535Z,101187.41
2022-11-24T22:45:53.168Z,101188.97
2022-11-24T22:48:19.858Z,101186.63
2022-11-24T22:50:46.489Z,101185.78
2022-11-24T22:53:13.018Z,101186.09
2022-11-24T22:55:39.521Z,101177.31
2022-11-24T22:58:06.104Z,101195.88
2022-11-24T23:00:32.673Z,101189.00
2022-11-24T23:02:59.318Z,101191.88
2022-11-24T23:05:25.916Z,101196.94
2022-11-24T23:07:52.574Z,101193.22
2022-11-24T23:10:19.223Z,101193.22
2022-11-24T23:12:45.673Z,101194.28
2022-11-24T23:15:12.411Z,101199.06
2022-11-24T23:17:38.930Z,101192.16
2022-11-24T23:20:06.530Z,101179.72
2022-11-24T23:22:33.282Z,101192.69
2022-11-24T23:24:59.832Z,101182.38
2022-11-24T23:27:26.310Z,101186.84
2022-11-24T23:29:52.819Z,101176.53
2022-11-24T23:32:19.547Z,101181.00
2022-11-24T23:34:46.196Z,101179.19
2022-11-24T23:37:12.655Z,101175.72
2022-11-24T23:39:39.378Z,101176.25
2022-11-24T23:42:06.086Z,101166.19
2022-11-24T23:44:32.865Z,101163.53
2022-11-24T23:46:59.471Z,101166.19
2022-11-24T23:49:26.034Z,101166.44
2022-11-24T23:51:52.547Z,101170.94
2022-11-24T23:54:19.178Z,101173.59
2022-11-24T23:56:45.639Z,101167.22
2022-11-24T23:59:12.538Z,101167.75
